Aérodrome :
LOGIN :

S'inscrire | Disclaimer

   EN    FR    IT 

 










Légende :    VFR   VFR Marginal   IFR   IFR Intensif   IFR Très Intensif
Visi : 
Plafond : 
>= 8 km
>= 3000ft
5 à 8 km
1000 à 3000 ft
1500m à 5 km
500 à 1000 ft
800 à 1500m
200 à 500 ft
< 800m
< 200 ft
Symboles :   Orages  Brouillard  Fortes neiges  Fortes précipitations  Vent > 20 kt
SIGMETs :   Divers  Orages  Givrage  Turbulence  Onde Orograph.  Cendres Volcan.






- Altitude de l'aérodrome : 36 ft
- Code IATA : LTQ


LFAT - Le Touquet

DERNIER METAR :
  • 152030Z AUTO 15001KT 7000 OVC049 M01/M02 Q1031

METARs EXPIRÉS :
  • 152000Z AUTO 00000KT 7000 NSC M01/M02 Q1031
  • 151930Z AUTO 00000KT 6000 NSC M02/M03 Q1031
  • 151900Z AUTO VRB01KT 7000 NSC M02/M03 Q1031
  • 151830Z AUTO 00000KT 9000 NSC M01/M02 Q1031
  • 151800Z AUTO 00000KT 9999 BKN049 M00/M02 Q1031 NOSIG

TAF TAF LFAT
Valide du 15 à 15h jusqu'au 16 à 00h UTC


151400Z 1515/1524 12005KT 9999 BKN040
ATIS : +33 3 21 06 62 84



MET'MAP, la Météo Aéronautique d'un coup d'oeil ! - Copyright ORBIFLY Décembre 2007 - Disclaimer

ORBIFLY MET'MAP TEAM :

Programmation & Développement : Alexandra Zaïnal
Sur une idée originale de : Baudouin d'Aumeries
Assistance à la programmation : Marc-Olivier Méhu
Soutien technique & logistique : Manuel Goepfert

Contact : metmap@orbifly.com




SOURCES & CREDITS :

   NOAA